Time;durP1;ratioP1;P1;durP2;ratioP2;P2;SDS_P1;SDS_P2;PMS_P1;PMS_P2;Temp;Humidity;BMP_temperature;BMP_pressure;BME280_temperature;BME280_humidity;BME280_pressure;Samples;Min_cycle;Max_cycle;Signal;HPM_P1;HPM_P2
2023/10/13 00:00:42;;;;;;;63.58;26.25;;;14.00;99.90;;;;;;5114905;28;20386;-69
2023/10/13 00:03:18;;;;;;;67.75;25.88;;;14.00;99.90;;;;;;5114470;28;20051;-69
2023/10/13 00:05:44;;;;;;;61.28;26.23;;;14.10;99.90;;;;;;5114463;28;20429;-69
2023/10/13 00:08:13;;;;;;;68.28;29.55;;;14.10;99.90;;;;;;5113939;28;20130;-68
2023/10/13 00:10:39;;;;;;;65.25;29.90;;;14.10;99.90;;;;;;5096476;28;20073;-68
2023/10/13 00:13:15;;;;;;;65.00;29.83;;;14.20;99.90;;;;;;5095966;28;20129;-69
2023/10/13 00:15:58;;;;;;;68.40;28.65;;;14.20;99.90;;;;;;5096316;28;20048;-68
2023/10/13 00:18:26;;;;;;;69.22;30.08;;;14.30;99.90;;;;;;5114400;28;20526;-69
2023/10/13 00:20:56;;;;;;;66.90;30.08;;;14.30;99.90;;;;;;5095681;28;20048;-69
2023/10/13 00:23:22;;;;;;;72.53;31.88;;;14.30;99.90;;;;;;5114424;28;20094;-67
2023/10/13 00:25:56;;;;;;;69.30;31.33;;;14.40;99.90;;;;;;5079481;28;20052;-69
2023/10/13 00:28:26;;;;;;;73.93;29.83;;;14.40;99.90;;;;;;5096171;28;20105;-69
2023/10/13 00:31:00;;;;;;;70.25;30.73;;;14.50;99.90;;;;;;5096051;28;20050;-76
2023/10/13 00:33:32;;;;;;;69.47;31.98;;;14.50;99.90;;;;;;5096447;28;20496;-69
2023/10/13 00:35:58;;;;;;;67.70;30.33;;;14.50;99.90;;;;;;5079388;28;20047;-68
2023/10/13 00:38:24;;;;;;;68.80;29.42;;;14.60;99.90;;;;;;5114271;28;20104;-68
2023/10/13 00:40:53;;;;;;;58.65;29.00;;;14.60;99.90;;;;;;5114186;28;20392;-68
2023/10/13 00:48:34;;;;;;;56.35;28.08;;;14.70;99.90;;;;;;5096472;28;20051;-67
2023/10/13 00:51:08;;;;;;;60.83;29.63;;;14.70;99.90;;;;;;5095661;28;20055;-68
2023/10/13 00:53:39;;;;;;;53.50;28.42;;;14.80;99.90;;;;;;5113766;28;20078;-69
2023/10/13 00:56:18;;;;;;;56.67;29.15;;;14.80;99.90;;;;;;5095349;28;20083;-69
2023/10/13 00:58:50;;;;;;;61.72;28.85;;;14.80;99.90;;;;;;5112863;28;20127;-68
2023/10/13 01:01:21;;;;;;;57.80;27.73;;;14.90;99.90;;;;;;5113329;28;20057;-69
2023/10/13 01:03:49;;;;;;;56.75;27.10;;;14.90;99.90;;;;;;5096280;28;20047;-69
2023/10/13 01:06:19;;;;;;;54.25;27.95;;;14.90;99.90;;;;;;5112431;28;20056;-69
2023/10/13 01:08:51;;;;;;;56.28;26.58;;;14.90;99.90;;;;;;5113326;28;20104;-69
2023/10/13 01:11:23;;;;;;;58.88;27.92;;;14.90;99.90;;;;;;5095111;28;20090;-69
2023/10/13 01:13:51;;;;;;;54.80;27.77;;;15.00;99.90;;;;;;5112926;28;20047;-69
2023/10/13 01:16:24;;;;;;;57.97;27.48;;;15.00;99.90;;;;;;5095052;28;20048;-68
2023/10/13 01:18:50;;;;;;;50.22;26.30;;;15.00;99.90;;;;;;5095373;28;20039;-68
2023/10/13 01:21:19;;;;;;;56.03;28.13;;;15.10;99.90;;;;;;5112757;28;20053;-69
2023/10/13 01:23:47;;;;;;;56.03;27.10;;;15.10;99.90;;;;;;5095473;28;20043;-69
2023/10/13 01:26:17;;;;;;;55.80;28.08;;;15.10;99.90;;;;;;5094742;28;20062;-69
2023/10/13 01:28:46;;;;;;;60.40;29.08;;;15.20;99.90;;;;;;5094728;28;20051;-72
2023/10/13 01:31:16;;;;;;;52.40;26.33;;;15.20;99.90;;;;;;5077868;28;20126;-69
2023/10/13 01:33:42;;;;;;;53.90;27.17;;;15.20;99.90;;;;;;5078431;28;20075;-69
2023/10/13 01:36:09;;;;;;;52.88;26.42;;;15.20;99.90;;;;;;5094588;28;20087;-67
2023/10/13 01:38:37;;;;;;;45.63;26.25;;;15.20;99.90;;;;;;5112981;28;20066;-68
2023/10/13 01:41:08;;;;;;;53.33;26.20;;;15.30;99.90;;;;;;5112530;28;20051;-69
2023/10/13 01:43:34;;;;;;;50.95;24.70;;;15.30;99.90;;;;;;5112938;28;20090;-68
2023/10/13 01:46:03;;;;;;;50.63;26.63;;;15.30;99.90;;;;;;5094689;28;20419;-77
2023/10/13 01:48:32;;;;;;;53.40;24.80;;;15.30;99.90;;;;;;5091115;28;20067;-68
2023/10/13 01:51:00;;;;;;;44.85;25.40;;;15.30;99.90;;;;;;5091409;28;20339;-69
2023/10/13 01:53:28;;;;;;;41.63;23.33;;;15.40;99.90;;;;;;5092026;28;20477;-68
2023/10/13 01:55:57;;;;;;;46.20;22.85;;;15.40;99.90;;;;;;5092486;28;20070;-69
2023/10/13 01:58:23;;;;;;;39.50;22.40;;;15.40;99.90;;;;;;5090704;28;20054;-69
2023/10/13 02:00:49;;;;;;;44.08;22.55;;;15.40;99.90;;;;;;5091273;28;20134;-68
2023/10/13 02:03:16;;;;;;;40.63;21.15;;;15.40;99.90;;;;;;5091723;28;20052;-68
2023/10/13 02:05:52;;;;;;;39.15;21.77;;;15.50;99.90;;;;;;5091086;28;20055;-68
2023/10/13 02:10:53;;;;;;;34.88;18.90;;;15.40;99.90;;;;;;5092377;28;20412;-68
2023/10/13 02:13:22;;;;;;;32.22;18.20;;;15.50;99.90;;;;;;5091844;28;20040;-68
2023/10/13 02:15:51;;;;;;;30.23;17.77;;;15.50;99.90;;;;;;5074676;28;20044;-68
2023/10/13 02:18:27;;;;;;;34.08;19.55;;;15.50;99.90;;;;;;5093425;28;20048;-69
2023/10/13 02:20:55;;;;;;;35.92;17.92;;;15.60;99.90;;;;;;5096484;28;20408;-69
2023/10/13 02:23:30;;;;;;;31.23;17.10;;;15.60;99.90;;;;;;5078019;28;20056;-69
2023/10/13 02:26:11;;;;;;;28.33;16.60;;;15.60;99.90;;;;;;5078306;28;20110;-69
2023/10/13 02:28:37;;;;;;;29.30;16.23;;;15.60;99.90;;;;;;5095125;28;20131;-69
2023/10/13 02:31:04;;;;;;;28.30;15.52;;;15.60;99.90;;;;;;5096120;28;20197;-69
2023/10/13 02:33:30;;;;;;;27.95;15.50;;;15.60;99.90;;;;;;5094564;28;20084;-68
2023/10/13 02:36:04;;;;;;;30.42;16.20;;;15.60;99.90;;;;;;5094999;28;20204;-67
2023/10/13 02:41:05;;;;;;;31.90;15.27;;;15.70;99.90;;;;;;5094983;28;20056;-69
2023/10/13 02:43:34;;;;;;;26.40;15.73;;;15.70;99.90;;;;;;5095694;28;20040;-69
2023/10/13 02:46:01;;;;;;;30.90;16.33;;;15.70;99.90;;;;;;5094754;28;20080;-69
2023/10/13 02:48:30;;;;;;;23.10;14.68;;;15.70;99.90;;;;;;5114268;28;20064;-69
2023/10/13 02:51:06;;;;;;;27.13;15.25;;;15.70;99.90;;;;;;5098546;28;20044;-67
2023/10/13 02:53:32;;;;;;;20.98;13.52;;;15.70;99.90;;;;;;5097760;28;20134;-68
2023/10/13 02:56:06;;;;;;;24.33;12.48;;;15.70;99.90;;;;;;5097918;28;20142;-69
2023/10/13 02:58:38;;;;;;;22.58;12.98;;;15.80;99.90;;;;;;5115899;28;20067;-69
2023/10/13 03:01:18;;;;;;;15.30;10.20;;;15.80;99.90;;;;;;5116930;28;20551;-68
2023/10/13 03:03:55;;;;;;;21.52;11.48;;;15.80;99.90;;;;;;5119595;28;20055;-70
2023/10/13 03:06:24;;;;;;;18.77;11.35;;;15.80;99.90;;;;;;5097330;28;20108;-69
2023/10/13 03:08:51;;;;;;;19.13;12.13;;;15.80;99.90;;;;;;5115506;28;20090;-68
2023/10/13 03:11:24;;;;;;;16.50;12.02;;;15.80;99.90;;;;;;5097282;28;20059;-68
2023/10/13 03:13:52;;;;;;;21.83;13.07;;;15.80;99.90;;;;;;5081694;28;20054;-67
2023/10/13 03:16:19;;;;;;;23.15;14.23;;;15.80;99.90;;;;;;5114889;28;20501;-68
2023/10/13 03:18:55;;;;;;;25.63;14.35;;;15.80;99.90;;;;;;5097813;28;20054;-68
2023/10/13 03:21:29;;;;;;;27.17;18.15;;;15.80;99.90;;;;;;5096925;28;20497;-71
2023/10/13 03:24:06;;;;;;;30.00;16.70;;;15.90;99.90;;;;;;5097184;28;20057;-67
2023/10/13 03:26:36;;;;;;;28.25;17.50;;;15.90;99.90;;;;;;5115173;28;20043;-73
2023/10/13 03:29:07;;;;;;;29.73;17.67;;;15.90;99.90;;;;;;5096785;28;20426;-68
2023/10/13 03:31:36;;;;;;;32.72;18.30;;;15.90;99.90;;;;;;5114631;28;20525;-68
2023/10/13 03:34:11;;;;;;;36.00;20.15;;;15.90;99.90;;;;;;5115175;28;20423;-68
2023/10/13 03:36:56;;;;;;;36.33;21.50;;;15.90;99.90;;;;;;5114902;28;20050;-68
2023/10/13 03:39:29;;;;;;;38.17;19.83;;;16.00;99.90;;;;;;5096822;28;20047;-68
2023/10/13 03:41:57;;;;;;;39.00;20.20;;;15.90;99.90;;;;;;5115073;28;20047;-68
2023/10/13 03:44:23;;;;;;;33.80;20.10;;;16.00;99.90;;;;;;5114640;28;20058;-68
2023/10/13 03:46:49;;;;;;;34.25;21.60;;;16.00;99.90;;;;;;5114721;28;20393;-68
2023/10/13 03:49:25;;;;;;;35.67;19.33;;;16.00;99.90;;;;;;5114865;28;20103;-68
2023/10/13 03:51:54;;;;;;;27.98;17.08;;;16.00;99.90;;;;;;5114925;28;20071;-67
2023/10/13 03:54:20;;;;;;;30.70;18.33;;;16.00;99.90;;;;;;5096395;28;20126;-78
2023/10/13 03:56:46;;;;;;;25.33;15.60;;;16.00;99.90;;;;;;5114852;28;20082;-67
2023/10/13 04:01:46;;;;;;;25.00;15.05;;;16.00;99.90;;;;;;5114245;28;20327;-68
2023/10/13 04:04:15;;;;;;;22.52;14.65;;;16.00;99.90;;;;;;5114608;28;20071;-69
2023/10/13 04:17:13;;;;;;;20.05;12.25;;;16.00;99.90;;;;;;5114502;28;20071;-68
2023/10/13 04:49:35;;;;;;;19.17;13.10;;;16.10;99.90;;;;;;5113520;28;20361;-66
2023/10/13 06:29:35;;;;;;;6.50;5.55;;;15.90;99.90;;;;;;5094530;28;20055;-69
2023/10/13 06:32:01;;;;;;;7.72;5.78;;;15.90;99.90;;;;;;5111843;28;20221;-73
2023/10/13 06:34:37;;;;;;;8.60;5.80;;;15.90;99.90;;;;;;5112312;28;20349;-69
2023/10/13 06:37:22;;;;;;;6.80;5.40;;;15.80;99.90;;;;;;5093831;28;20055;-70
2023/10/13 06:39:49;;;;;;;9.10;5.60;;;15.80;99.90;;;;;;5093846;28;20453;-70
2023/10/13 06:42:16;;;;;;;7.75;5.82;;;15.80;99.90;;;;;;5094053;28;20431;-74
2023/10/13 06:44:45;;;;;;;8.05;4.93;;;15.80;99.90;;;;;;5112340;28;20055;-79
2023/10/13 06:47:11;;;;;;;4.55;3.28;;;15.90;99.90;;;;;;5093365;28;20461;-70
2023/10/13 06:49:39;;;;;;;7.05;5.45;;;15.90;99.90;;;;;;5112102;28;20055;-70
2023/10/13 06:52:06;;;;;;;6.35;5.53;;;15.90;99.90;;;;;;5093797;28;20461;-70
2023/10/13 06:54:38;;;;;;;9.55;4.97;;;15.90;99.90;;;;;;5094041;28;20050;-71
2023/10/13 06:57:06;;;;;;;7.35;4.90;;;15.90;99.90;;;;;;5111813;28;20078;-72
2023/10/13 06:59:39;;;;;;;5.85;4.55;;;15.90;99.90;;;;;;5093882;28;20051;-70
2023/10/13 07:02:06;;;;;;;5.47;4.28;;;16.00;99.90;;;;;;5093777;28;20545;-69
2023/10/13 07:04:32;;;;;;;7.53;4.40;;;16.00;99.90;;;;;;5114710;28;20052;-69
2023/10/13 07:07:00;;;;;;;10.00;4.50;;;16.10;99.90;;;;;;5097243;28;20039;-71
2023/10/13 07:12:06;;;;;;;6.82;4.05;;;16.10;99.90;;;;;;5081713;28;20057;-70
2023/10/13 07:14:33;;;;;;;7.22;3.53;;;16.10;99.90;;;;;;5080944;28;20080;-69
2023/10/13 07:17:04;;;;;;;7.93;3.90;;;16.20;99.90;;;;;;5097270;28;20055;-70
2023/10/13 07:19:31;;;;;;;8.93;4.10;;;16.20;99.90;;;;;;5097517;28;20126;-68
2023/10/13 07:21:59;;;;;;;7.55;4.03;;;16.20;99.90;;;;;;5115175;28;20048;-69
2023/10/13 07:24:31;;;;;;;9.23;5.00;;;16.20;99.90;;;;;;5097375;28;20074;-69
2023/10/13 07:27:05;;;;;;;11.48;4.47;;;16.30;99.90;;;;;;5116876;28;20040;-67
2023/10/13 07:29:35;;;;;;;10.05;4.35;;;16.30;99.90;;;;;;5098844;28;20396;-69
2023/10/13 07:32:09;;;;;;;6.90;4.00;;;16.20;99.90;;;;;;5115031;28;20152;-69
2023/10/13 07:34:36;;;;;;;9.82;4.30;;;16.30;99.90;;;;;;5115508;28;20070;-69
2023/10/13 07:37:07;;;;;;;10.52;5.10;;;16.30;99.90;;;;;;5096448;28;20044;-69
2023/10/13 07:39:39;;;;;;;13.15;4.90;;;16.30;99.90;;;;;;5080352;28;20051;-69
2023/10/13 07:42:14;;;;;;;13.02;5.50;;;16.30;99.90;;;;;;5096824;28;20055;-69
2023/10/13 07:44:45;;;;;;;15.40;5.10;;;16.30;99.90;;;;;;5097145;28;20047;-68
2023/10/13 07:47:14;;;;;;;10.30;4.60;;;16.30;99.90;;;;;;5114126;28;20051;-71
2023/10/13 07:49:40;;;;;;;13.23;4.78;;;16.30;99.90;;;;;;5096621;28;20090;-71
2023/10/13 07:54:49;;;;;;;12.90;4.80;;;16.30;99.90;;;;;;5114964;28;20094;-71
2023/10/13 07:57:17;;;;;;;17.83;5.63;;;16.30;99.90;;;;;;5096179;28;20396;-69
2023/10/13 07:59:51;;;;;;;14.82;5.32;;;16.20;99.90;;;;;;5114490;28;20087;-68
2023/10/13 08:02:47;;;;;;;14.75;4.60;;;16.20;99.90;;;;;;5063842;28;20039;-71
2023/10/13 08:05:04;;;;;;;10.70;4.57;;;16.30;99.90;;;;;;5095992;28;20606;-68
2023/10/13 08:07:31;;;;;;;13.85;5.15;;;16.20;99.90;;;;;;5114591;28;20047;-68
2023/10/13 08:09:59;;;;;;;15.98;5.43;;;16.20;99.90;;;;;;5113647;28;20452;-73
2023/10/13 08:12:25;;;;;;;10.05;5.38;;;16.20;99.90;;;;;;5096306;28;20401;-68
2023/10/13 08:15:09;;;;;;;13.15;5.38;;;16.20;99.90;;;;;;5113116;28;20043;-67
2023/10/13 08:17:35;;;;;;;11.68;5.22;;;16.20;99.90;;;;;;5096389;28;20039;-70
2023/10/13 08:20:11;;;;;;;11.10;5.22;;;16.20;99.90;;;;;;5113766;28;20047;-69
2023/10/13 08:22:38;;;;;;;13.27;5.70;;;16.30;99.90;;;;;;5096418;28;20040;-69
2023/10/13 08:27:50;;;;;;;13.93;5.07;;;16.20;99.90;;;;;;5096201;28;20419;-68
2023/10/13 08:30:42;;;;;;;10.35;4.60;;;16.30;99.90;;;;;;5095462;28;20047;-68
2023/10/13 08:33:17;;;;;;;18.08;5.18;;;16.30;99.90;;;;;;5113876;28;20044;-69
2023/10/13 08:36:10;;;;;;;10.93;4.95;;;16.30;99.90;;;;;;5063679;28;20091;-69
2023/10/13 08:38:50;;;;;;;14.65;5.25;;;16.30;99.90;;;;;;5099976;28;20040;-68
2023/10/13 08:43:50;;;;;;;14.23;5.10;;;16.40;99.90;;;;;;5095776;28;20083;-68
2023/10/13 08:46:28;;;;;;;16.27;5.80;;;16.40;99.90;;;;;;5095680;28;20135;-69
2023/10/13 08:49:39;;;;;;;11.35;5.75;;;16.40;99.90;;;;;;5095920;28;20472;-69
2023/10/13 08:52:45;;;;;;;13.70;5.07;;;16.50;99.90;;;;;;5090458;28;20439;-68
2023/10/13 08:54:45;;;;;;;10.68;5.13;;;16.50;99.90;;;;;;5095199;28;20055;-69
2023/10/13 08:57:32;;;;;;;12.75;5.53;;;16.60;99.90;;;;;;5095330;28;20112;-69
2023/10/13 09:00:26;;;;;;;15.55;5.47;;;16.70;99.90;;;;;;5095712;28;20392;-70
2023/10/13 09:02:59;;;;;;;14.10;5.47;;;16.70;99.90;;;;;;5080696;28;20059;-69
2023/10/13 09:06:00;;;;;;;11.80;5.13;;;16.70;99.90;;;;;;5094823;28;20054;-68
2023/10/13 09:08:44;;;;;;;12.18;4.90;;;16.80;99.90;;;;;;5099765;28;20039;-69
2023/10/13 09:11:12;;;;;;;12.00;6.00;;;16.80;99.90;;;;;;5077699;28;20058;-68
2023/10/13 09:13:47;;;;;;;11.32;4.82;;;16.90;99.90;;;;;;5113206;28;20116;-69
2023/10/13 09:16:51;;;;;;;12.55;5.82;;;17.00;99.90;;;;;;5112951;28;20043;-69
2023/10/13 09:19:11;;;;;;;15.43;5.45;;;17.10;99.90;;;;;;5081581;28;20085;-70
2023/10/13 09:26:55;;;;;;;12.38;5.95;;;17.30;99.90;;;;;;5094352;28;20047;-70
2023/10/13 09:29:21;;;;;;;17.23;6.30;;;17.30;99.90;;;;;;5112778;28;20051;-69
2023/10/13 09:31:59;;;;;;;15.38;6.20;;;17.60;99.90;;;;;;5112741;28;20492;-71
2023/10/13 09:34:29;;;;;;;10.57;4.68;;;17.50;99.90;;;;;;5094555;28;20304;-69
2023/10/13 09:36:58;;;;;;;14.50;5.97;;;17.50;99.90;;;;;;5077628;28;20039;-69
2023/10/13 09:39:29;;;;;;;13.75;5.80;;;17.60;99.90;;;;;;5112758;28;20051;-69
2023/10/13 09:41:59;;;;;;;11.13;5.45;;;17.70;99.90;;;;;;5097484;28;20096;-68
2023/10/13 09:44:30;;;;;;;12.68;6.03;;;17.80;99.90;;;;;;5094730;28;20035;-69
2023/10/13 09:47:07;;;;;;;10.15;5.13;;;17.90;99.90;;;;;;5077237;28;20146;-68
2023/10/13 09:49:44;;;;;;;15.13;5.97;;;17.90;99.90;;;;;;5111170;28;20513;-69
2023/10/13 09:52:19;;;;;;;12.55;5.97;;;18.00;99.90;;;;;;5077517;28;20112;-72
2023/10/13 09:55:03;;;;;;;16.25;6.45;;;18.00;99.90;;;;;;5094709;28;20058;-70
2023/10/13 09:57:40;;;;;;;11.75;5.82;;;18.00;99.90;;;;;;5112287;28;20044;-70
2023/10/13 10:03:30;;;;;;;11.75;6.07;;;18.20;99.90;;;;;;5089733;28;20131;-69
2023/10/13 10:06:05;;;;;;;12.45;5.72;;;18.30;99.90;;;;;;5094607;28;20058;-68
2023/10/13 10:08:34;;;;;;;13.98;5.47;;;18.40;99.90;;;;;;5093911;28;20036;-70
2023/10/13 10:11:12;;;;;;;11.43;5.00;;;18.50;99.90;;;;;;5112470;28;20557;-69
2023/10/13 10:14:17;;;;;;;12.55;5.88;;;18.60;99.90;;;;;;5112589;28;20051;-79
2023/10/13 10:16:46;;;;;;;11.93;5.18;;;18.50;99.90;;;;;;5112098;28;20051;-69
2023/10/13 10:19:12;;;;;;;12.13;5.05;;;18.60;99.90;;;;;;5094344;28;20138;-80
2023/10/13 10:21:40;;;;;;;16.77;5.13;;;18.50;99.90;;;;;;5112211;28;20044;-69
2023/10/13 10:24:36;;;;;;;15.10;4.47;;;18.60;99.90;;;;;;5112384;28;20050;-69
2023/10/13 10:27:04;;;;;;;12.90;5.13;;;18.60;99.90;;;;;;5094333;28;20096;-70
2023/10/13 10:29:32;;;;;;;15.43;5.95;;;18.70;99.90;;;;;;5060788;28;20154;-69
2023/10/13 10:31:59;;;;;;;12.65;4.47;;;18.60;99.90;;;;;;5094214;28;20055;-69
2023/10/13 10:34:32;;;;;;;14.30;5.60;;;18.70;99.90;;;;;;5093738;28;20055;-69
2023/10/13 10:36:58;;;;;;;13.73;5.03;;;18.70;99.90;;;;;;5094291;28;20061;-70
2023/10/13 10:39:44;;;;;;;12.30;5.32;;;18.70;99.90;;;;;;5096658;28;20056;-69
2023/10/13 10:42:23;;;;;;;20.73;5.70;;;18.80;99.90;;;;;;5082761;28;20189;-70
2023/10/13 10:44:55;;;;;;;15.02;5.45;;;18.90;99.90;;;;;;5081184;28;20044;-70
2023/10/13 10:47:30;;;;;;;14.38;5.18;;;19.00;99.90;;;;;;5081162;28;20044;-70
2023/10/13 10:50:07;;;;;;;15.15;5.20;;;19.10;99.90;;;;;;5093895;28;20158;-70
2023/10/13 10:52:37;;;;;;;14.27;5.07;;;19.20;99.90;;;;;;5095082;28;20063;-70
2023/10/13 10:55:13;;;;;;;16.95;4.90;;;19.20;99.90;;;;;;5095590;28;20161;-70
2023/10/13 10:57:46;;;;;;;11.30;4.45;;;19.30;99.90;;;;;;5077413;28;20048;-70
2023/10/13 11:00:21;;;;;;;12.18;5.15;;;19.30;99.90;;;;;;5094534;28;20500;-70
2023/10/13 11:02:56;;;;;;;13.38;4.63;;;19.30;99.90;;;;;;5094451;28;20048;-70
2023/10/13 11:05:29;;;;;;;15.20;4.82;;;19.40;99.90;;;;;;5093599;28;20108;-70
2023/10/13 11:07:54;;;;;;;18.65;5.10;;;19.40;99.90;;;;;;5094095;28;20492;-69
2023/10/13 11:10:27;;;;;;;15.82;5.07;;;19.50;99.90;;;;;;5095198;28;20136;-79
2023/10/13 11:13:13;;;;;;;14.55;5.50;;;19.60;99.90;;;;;;5093970;28;20056;-70
2023/10/13 11:15:46;;;;;;;15.63;5.10;;;19.70;99.90;;;;;;5093969;28;20074;-70
2023/10/13 11:18:33;;;;;;;15.57;5.00;;;19.80;99.90;;;;;;5094342;28;20044;-69
2023/10/13 11:20:59;;;;;;;13.68;5.07;;;19.80;99.90;;;;;;5095372;28;20071;-70
2023/10/13 11:23:25;;;;;;;17.50;5.28;;;19.90;99.90;;;;;;5094459;28;20043;-70
2023/10/13 11:25:59;;;;;;;13.25;4.82;;;19.80;99.90;;;;;;5095398;28;20135;-70
2023/10/13 11:28:27;;;;;;;18.15;5.18;;;19.80;99.90;;;;;;5094635;28;20133;-71
2023/10/13 11:30:58;;;;;;;12.10;4.45;;;19.70;99.90;;;;;;5094131;28;20063;-70
2023/10/13 11:33:27;;;;;;;16.65;5.15;;;19.70;99.90;;;;;;5094784;28;20051;-80
2023/10/13 11:38:29;;;;;;;13.82;4.95;;;19.80;99.90;;;;;;5093860;28;20055;-71
2023/10/13 11:46:15;;;;;;;16.83;4.95;;;19.90;99.90;;;;;;5078173;28;20052;-69
2023/10/13 11:48:45;;;;;;;14.52;5.10;;;19.90;99.90;;;;;;5094599;28;20056;-70
2023/10/13 11:51:23;;;;;;;17.73;5.88;;;19.80;99.90;;;;;;5115536;28;20051;-70
2023/10/13 11:53:53;;;;;;;14.38;5.00;;;19.80;99.90;;;;;;5115205;28;20100;-71
2023/10/13 11:56:24;;;;;;;14.05;4.95;;;19.70;99.90;;;;;;5081768;28;20381;-69
2023/10/13 11:58:50;;;;;;;15.00;5.00;;;19.60;99.90;;;;;;5098214;28;20121;-70
2023/10/13 12:04:30;;;;;;;18.15;6.15;;;19.50;99.90;;;;;;5115090;28;20075;-70
2023/10/13 12:10:02;;;;;;;19.38;5.82;;;19.30;99.90;;;;;;5096516;28;20048;-70
2023/10/13 12:12:40;;;;;;;14.70;5.80;;;19.20;99.90;;;;;;5114618;28;20070;-78
2023/10/13 12:15:09;;;;;;;18.27;5.18;;;19.30;99.90;;;;;;5115104;28;20417;-70
2023/10/13 12:17:36;;;;;;;17.95;5.50;;;19.30;99.90;;;;;;5096397;28;20047;-70
2023/10/13 12:20:10;;;;;;;13.45;5.95;;;19.30;99.90;;;;;;5114789;28;20131;-71
2023/10/13 12:22:38;;;;;;;16.73;5.88;;;19.40;99.90;;;;;;5096160;28;20055;-71
2023/10/13 12:27:56;;;;;;;11.60;5.15;;;19.40;99.90;;;;;;5095879;28;20103;-71
2023/10/13 12:30:35;;;;;;;14.57;5.15;;;19.50;99.90;;;;;;5079798;28;20512;-71
2023/10/13 12:33:11;;;;;;;17.98;6.00;;;19.30;99.90;;;;;;5096622;28;20138;-70
2023/10/13 12:52:15;;;;;;;17.30;6.20;;;19.40;99.90;;;;;;5092405;28;20289;-71
2023/10/13 12:54:46;;;;;;;18.50;6.50;;;19.40;99.90;;;;;;5093302;28;20405;-70
2023/10/13 12:57:15;;;;;;;11.93;4.70;;;19.30;99.90;;;;;;5092552;28;20405;-71
2023/10/13 12:59:42;;;;;;;18.55;6.50;;;19.30;99.90;;;;;;5093476;28;20131;-71
2023/10/13 13:02:14;;;;;;;17.77;5.93;;;19.30;99.90;;;;;;5091653;28;20107;-71
2023/10/13 13:04:43;;;;;;;14.85;5.72;;;19.30;99.90;;;;;;5092381;28;20048;-71
2023/10/13 13:07:13;;;;;;;17.23;6.30;;;19.20;99.90;;;;;;5093455;28;20048;-71
2023/10/13 13:09:42;;;;;;;18.55;6.90;;;19.20;99.90;;;;;;5075858;28;20056;-72
2023/10/13 13:12:12;;;;;;;15.20;6.97;;;19.20;99.90;;;;;;5075523;28;20063;-72
2023/10/13 13:14:41;;;;;;;16.15;6.57;;;19.10;99.90;;;;;;5075973;28;20051;-73
2023/10/13 13:17:07;;;;;;;18.95;7.30;;;19.00;99.90;;;;;;5093331;28;20040;-72
2023/10/13 13:19:39;;;;;;;16.85;7.68;;;18.90;99.90;;;;;;5093534;28;20040;-71
2023/10/13 13:22:11;;;;;;;18.98;7.28;;;18.80;99.90;;;;;;5093378;28;20089;-72
2023/10/13 13:24:44;;;;;;;17.42;6.60;;;18.80;99.90;;;;;;5092283;28;20056;-72
2023/10/13 13:27:22;;;;;;;20.67;8.18;;;18.80;99.90;;;;;;5075108;28;20043;-70
2023/10/13 13:29:48;;;;;;;19.52;7.80;;;18.70;99.90;;;;;;5093350;28;20055;-72
2023/10/13 13:32:18;;;;;;;14.70;7.47;;;18.70;99.90;;;;;;5093294;28;20043;-70
2023/10/13 13:35:13;;;;;;;16.98;7.63;;;18.70;99.90;;;;;;5058989;28;20401;-71
2023/10/13 13:37:34;;;;;;;17.45;7.22;;;18.60;99.90;;;;;;5090880;28;20100;-72
2023/10/13 13:40:15;;;;;;;17.40;7.50;;;18.60;99.90;;;;;;5091688;28;20048;-71
2023/10/13 13:42:45;;;;;;;20.23;7.82;;;18.60;99.90;;;;;;5091544;28;20490;-71
2023/10/13 13:45:32;;;;;;;15.50;7.35;;;18.60;99.90;;;;;;5091410;28;20052;-70
2023/10/13 13:47:58;;;;;;;20.02;8.38;;;18.50;99.90;;;;;;5091628;28;20110;-70
2023/10/13 13:50:28;;;;;;;24.23;7.55;;;18.50;99.90;;;;;;5106516;28;20068;-71
2023/10/13 13:52:57;;;;;;;22.83;7.30;;;18.50;99.90;;;;;;5113126;28;20374;-70
2023/10/13 13:55:24;;;;;;;19.33;6.90;;;18.50;99.90;;;;;;5113041;28;20062;-70
2023/10/13 13:57:50;;;;;;;19.67;7.90;;;18.60;99.90;;;;;;5095077;28;20043;-70
2023/10/13 14:00:48;;;;;;;17.08;7.18;;;18.60;99.90;;;;;;5095210;28;20055;-70
2023/10/13 14:03:12;;;;;;;20.55;7.75;;;18.60;99.90;;;;;;5093954;28;20051;-71
2023/10/13 14:05:45;;;;;;;16.98;6.47;;;18.60;99.90;;;;;;5094944;28;20048;-71
2023/10/13 14:08:15;;;;;;;18.67;6.80;;;18.60;99.90;;;;;;5077672;28;20047;-72
2023/10/13 14:16:16;;;;;;;19.83;6.32;;;18.70;99.90;;;;;;5116728;28;19927;-70
2023/10/13 14:18:46;;;;;;;20.38;7.88;;;18.70;99.90;;;;;;5116881;28;20040;-70
2023/10/13 14:21:16;;;;;;;18.45;6.60;;;18.80;99.90;;;;;;5098470;28;20039;-69
2023/10/13 14:23:45;;;;;;;17.25;6.78;;;18.80;99.90;;;;;;5099185;28;20180;-68
2023/10/13 14:26:12;;;;;;;16.02;6.75;;;18.80;99.90;;;;;;5098555;28;20048;-69
2023/10/13 14:28:50;;;;;;;17.85;6.45;;;18.90;99.90;;;;;;5098212;28;20055;-73
2023/10/13 14:31:18;;;;;;;17.95;5.68;;;18.90;99.90;;;;;;5083615;28;20051;-74
2023/10/13 14:33:46;;;;;;;15.45;6.78;;;18.90;99.90;;;;;;5098236;28;20058;-76
2023/10/13 14:36:12;;;;;;;19.45;6.60;;;18.90;99.90;;;;;;5081000;28;20511;-69
2023/10/13 14:38:37;;;;;;;19.00;6.55;;;18.90;99.90;;;;;;5081143;28;20055;-76
2023/10/13 14:41:05;;;;;;;14.23;6.65;;;18.90;99.90;;;;;;5081188;28;20039;-80
2023/10/13 14:43:31;;;;;;;16.80;6.50;;;18.90;99.90;;;;;;5116267;28;20079;-82
2023/10/13 14:45:56;;;;;;;16.08;6.20;;;18.90;99.90;;;;;;5064787;28;20476;-73
2023/10/13 14:48:25;;;;;;;13.90;6.53;;;18.90;99.90;;;;;;5063022;28;20048;-82
2023/10/13 14:50:50;;;;;;;16.63;6.68;;;18.90;99.90;;;;;;5096678;28;20079;-77
2023/10/13 14:53:19;;;;;;;14.77;6.57;;;18.90;99.90;;;;;;5064127;28;20044;-79
2023/10/13 14:55:45;;;;;;;15.10;6.38;;;18.90;99.90;;;;;;5096341;28;20043;-80
2023/10/13 14:58:16;;;;;;;19.42;7.30;;;18.90;99.90;;;;;;5098323;28;20103;-79
2023/10/13 15:00:45;;;;;;;15.65;6.35;;;18.90;99.90;;;;;;5097442;28;20056;-79
2023/10/13 15:03:11;;;;;;;17.08;6.18;;;18.80;99.90;;;;;;5097033;28;20378;-81
2023/10/13 15:05:43;;;;;;;15.45;7.10;;;18.80;99.90;;;;;;5097918;28;20388;-83
2023/10/13 15:08:09;;;;;;;22.65;7.30;;;18.80;99.90;;;;;;5097138;28;20181;-84
2023/10/13 15:10:36;;;;;;;14.82;6.68;;;18.80;99.90;;;;;;5081447;28;20046;-82
2023/10/13 15:13:05;;;;;;;21.98;7.43;;;18.80;99.90;;;;;;5065107;28;20090;-85
2023/10/13 15:15:32;;;;;;;19.27;7.05;;;18.80;99.90;;;;;;5065363;28;20104;-82
2023/10/13 15:17:58;;;;;;;17.48;6.40;;;18.80;99.90;;;;;;5098125;28;20079;-84
2023/10/13 15:20:24;;;;;;;13.85;6.20;;;18.80;99.90;;;;;;5065636;28;20457;-84
2023/10/13 15:22:53;;;;;;;13.80;6.13;;;18.80;99.90;;;;;;5116493;28;20083;-79
2023/10/13 15:25:28;;;;;;;16.25;5.93;;;18.80;99.90;;;;;;5064610;28;20047;-83
2023/10/13 15:28:02;;;;;;;14.32;6.57;;;18.70;99.90;;;;;;5065591;28;20473;-83
2023/10/13 15:30:43;;;;;;;16.35;6.25;;;18.60;99.90;;;;;;5065345;28;20048;-78
2023/10/13 15:33:12;;;;;;;15.95;6.85;;;18.60;99.90;;;;;;5083703;28;20044;-84
2023/10/13 15:35:42;;;;;;;16.38;6.85;;;18.50;99.90;;;;;;5116369;28;20043;-86
2023/10/13 15:38:12;;;;;;;18.30;7.07;;;18.50;99.90;;;;;;5081512;28;20138;-83
2023/10/13 15:40:44;;;;;;;16.40;7.18;;;18.40;99.90;;;;;;5081817;28;20043;-82
2023/10/13 15:43:12;;;;;;;13.13;5.85;;;18.40;99.90;;;;;;5080946;28;20051;-81
2023/10/13 15:45:42;;;;;;;16.77;6.28;;;18.40;99.90;;;;;;5081031;28;20481;-79
2023/10/13 15:48:11;;;;;;;14.77;6.03;;;18.40;99.90;;;;;;5064312;28;20069;-78
2023/10/13 15:50:41;;;;;;;16.05;7.65;;;18.40;99.90;;;;;;5080859;28;20412;-80
2023/10/13 15:53:12;;;;;;;16.95;6.57;;;18.40;99.90;;;;;;5080586;28;20126;-80
2023/10/13 15:55:38;;;;;;;21.83;8.00;;;18.30;99.90;;;;;;5080824;28;20047;-85
2023/10/13 15:58:07;;;;;;;15.95;7.07;;;18.40;99.90;;;;;;5080876;28;20108;-82
2023/10/13 16:00:37;;;;;;;19.75;7.68;;;18.30;99.90;;;;;;5047303;28;20055;-87
2023/10/13 16:03:10;;;;;;;16.88;6.53;;;18.30;99.90;;;;;;5097336;28;20040;-81
2023/10/13 16:05:37;;;;;;;16.83;7.45;;;18.30;99.90;;;;;;5097911;28;20130;-85
2023/10/13 16:08:06;;;;;;;16.42;6.82;;;18.30;99.90;;;;;;5064952;28;20039;-77
2023/10/13 16:10:33;;;;;;;18.73;6.75;;;18.30;99.90;;;;;;5098848;28;20374;-80
2023/10/13 16:12:59;;;;;;;20.02;7.05;;;18.30;99.90;;;;;;5083820;28;20055;-85
2023/10/13 16:15:24;;;;;;;19.60;7.22;;;18.30;99.90;;;;;;5068081;28;20047;-81
2023/10/13 16:17:53;;;;;;;19.05;8.30;;;18.30;99.90;;;;;;5081786;28;20055;-83
2023/10/13 16:20:20;;;;;;;21.58;7.82;;;18.30;99.90;;;;;;5052232;28;20034;-81
2023/10/13 16:22:47;;;;;;;20.48;7.05;;;18.20;99.90;;;;;;5087784;28;20428;-74
2023/10/13 16:25:15;;;;;;;15.52;6.30;;;18.20;99.90;;;;;;5120836;28;20186;-83